Time,TemperatureF,DewpointF,PressureIn,WindDirection,WindDirectionDegrees,WindSpeedMPH,WindSpeedGustMPH,Humidity,HourlyPrecipIn,Conditions,Clouds,dailyrainin,SoftwareType,DateUTC
2013-08-23 00:00:00,65.4,62.4,29.97,ESE,109,1.0,1.0,90,0.00,,,0.01,Wunderground v.1.15,2013-08-23 04:00:00,
2013-08-23 00:02:00,65.4,62.4,29.97,ESE,109,0.0,1.0,90,0.00,,,0.01,Wunderground v.1.15,2013-08-23 04:02:00,
2013-08-23 00:04:00,65.4,62.1,29.97,ESE,109,0.0,1.0,89,0.00,,,0.00,Wunderground v.1.15,2013-08-23 04:04:00,
2013-08-23 00:06:00,65.4,62.1,29.97,ESE,109,0.0,1.0,89,0.00,,,0.00,Wunderground v.1.15,2013-08-23 04:06:00,
2013-08-23 00:12:00,65.8,62.5,29.97,SE,139,0.0,0.0,89,0.00,,,0.00,Wunderground v.1.15,2013-08-23 04:12:00,
2013-08-23 00:14:00,65.8,62.5,29.98,SE,139,0.0,0.0,89,0.00,,,0.00,Wunderground v.1.15,2013-08-23 04:14:00,
2013-08-23 00:20:00,65.9,62.6,29.98,SE,139,0.0,0.0,89,0.00,,,0.00,Wunderground v.1.15,2013-08-23 04:20:00,
2013-08-23 00:26:00,65.8,62.5,29.98,SW,220,1.0,4.0,89,0.00,,,0.00,Wunderground v.1.15,2013-08-23 04:26:00,
2013-08-23 00:32:00,65.6,62.3,29.98,SW,220,2.0,2.0,89,0.00,,,0.00,Wunderground v.1.15,2013-08-23 04:32:00,
2013-08-23 00:38:00,65.4,62.4,29.98,West,267,1.0,2.0,90,0.00,,,0.00,Wunderground v.1.15,2013-08-23 04:38:00,
2013-08-23 00:42:00,65.4,62.4,29.98,West,267,0.0,0.0,90,0.00,,,0.00,Wunderground v.1.15,2013-08-23 04:42:00,
2013-08-23 00:48:00,65.5,62.5,29.98,West,267,1.0,1.0,90,0.00,,,0.00,Wunderground v.1.15,2013-08-23 04:48:00,
2013-08-23 00:54:00,65.5,62.5,29.98,West,267,1.0,3.0,90,0.00,,,0.00,Wunderground v.1.15,2013-08-23 04:54:00,
2013-08-23 01:00:00,65.5,62.5,29.98,NE,51,1.0,3.0,90,0.00,,,0.00,Wunderground v.1.15,2013-08-23 05:00:00,
2013-08-23 01:06:00,65.4,62.4,29.98,NE,52,1.0,3.0,90,0.00,,,0.00,Wunderground v.1.15,2013-08-23 05:06:00,
2013-08-23 01:12:00,65.4,62.7,29.98,NE,52,0.0,0.0,91,0.00,,,0.00,Wunderground v.1.15,2013-08-23 05:12:00,
2013-08-23 01:18:00,65.4,62.7,29.97,NE,51,1.0,2.0,91,0.00,,,0.00,Wunderground v.1.15,2013-08-23 05:18:00,
2013-08-23 01:24:00,65.4,62.7,29.97,NE,51,1.0,1.0,91,0.00,,,0.00,Wunderground v.1.15,2013-08-23 05:24:00,
2013-08-23 01:30:00,65.4,62.7,29.97,NE,52,0.0,0.0,91,0.00,,,0.00,Wunderground v.1.15,2013-08-23 05:30:00,
2013-08-23 01:36:00,65.3,62.6,29.97,NE,52,0.0,0.0,91,0.00,,,0.00,Wunderground v.1.15,2013-08-23 05:36:00,
2013-08-23 01:42:00,65.3,62.6,29.96,NE,52,0.0,0.0,91,0.00,,,0.00,Wunderground v.1.15,2013-08-23 05:42:00,
2013-08-23 01:48:00,65.0,62.3,29.96,NE,52,0.0,0.0,91,0.00,,,0.00,Wunderground v.1.15,2013-08-23 05:48:00,
2013-08-23 01:54:00,65.0,62.3,29.96,NE,52,0.0,0.0,91,0.00,,,0.00,Wunderground v.1.15,2013-08-23 05:54:00,
2013-08-23 02:00:00,65.0,62.6,29.96,NE,52,0.0,0.0,92,0.00,,,0.00,Wunderground v.1.15,2013-08-23 06:00:00,
2013-08-23 02:06:00,64.8,62.1,29.96,NE,52,0.0,0.0,91,0.00,,,0.00,Wunderground v.1.15,2013-08-23 06:06:00,
2013-08-23 02:12:00,64.5,62.1,29.95,NE,52,0.0,0.0,92,0.00,,,0.00,Wunderground v.1.15,2013-08-23 06:12:00,
2013-08-23 02:18:00,64.7,62.3,29.96,NE,52,0.0,0.0,92,0.00,,,0.00,Wunderground v.1.15,2013-08-23 06:18:00,
2013-08-23 02:24:00,64.8,62.7,29.96,NE,52,0.0,0.0,93,0.00,,,0.00,Wunderground v.1.15,2013-08-23 06:24:00,
2013-08-23 02:30:00,64.9,62.8,29.96,NE,52,0.0,0.0,93,0.00,,,0.00,Wunderground v.1.15,2013-08-23 06:30:00,
2013-08-23 02:36:00,64.8,62.7,29.95,NE,52,0.0,0.0,93,0.00,,,0.00,Wunderground v.1.15,2013-08-23 06:36:00,
2013-08-23 02:42:00,64.8,62.7,29.95,NE,52,0.0,0.0,93,0.00,,,0.00,Wunderground v.1.15,2013-08-23 06:42:00,
2013-08-23 02:48:00,64.9,62.8,29.95,NE,52,0.0,0.0,93,0.00,,,0.00,Wunderground v.1.15,2013-08-23 06:48:00,
2013-08-23 02:54:00,64.9,62.8,29.95,NE,52,0.0,0.0,93,0.00,,,0.00,Wunderground v.1.15,2013-08-23 06:54:00,
2013-08-23 03:00:00,64.9,62.8,29.95,NE,52,0.0,0.0,93,0.00,,,0.00,Wunderground v.1.15,2013-08-23 07:00:00,
2013-08-23 03:06:00,64.6,62.5,29.95,NE,52,0.0,0.0,93,0.00,,,0.00,Wunderground v.1.15,2013-08-23 07:06:00,
2013-08-23 03:12:00,64.4,62.3,29.96,South,181,0.0,2.0,93,0.00,,,0.00,Wunderground v.1.15,2013-08-23 07:12:00,
2013-08-23 03:18:00,64.6,62.5,29.96,SW,224,2.0,4.0,93,0.00,,,0.00,Wunderground v.1.15,2013-08-23 07:18:00,
2013-08-23 03:24:00,64.8,62.7,29.96,SW,225,2.0,2.0,93,0.00,,,0.00,Wunderground v.1.15,2013-08-23 07:24:00,
2013-08-23 03:30:00,64.8,62.7,29.96,SSW,198,2.0,2.0,93,0.00,,,0.00,Wunderground v.1.15,2013-08-23 07:30:00,
2013-08-23 03:36:00,65.0,63.2,29.96,SW,231,2.0,3.0,94,0.00,,,0.00,Wunderground v.1.15,2013-08-23 07:36:00,
2013-08-23 03:42:00,64.9,63.1,29.96,SW,231,2.0,4.0,94,0.00,,,0.00,Wunderground v.1.15,2013-08-23 07:42:00,
2013-08-23 03:48:00,65.0,63.2,29.96,SW,229,3.0,4.0,94,0.00,,,0.00,Wunderground v.1.15,2013-08-23 07:48:00,
2013-08-23 03:54:00,64.9,63.1,29.96,SW,230,1.0,2.0,94,0.00,,,0.00,Wunderground v.1.15,2013-08-23 07:54:00,
2013-08-23 04:00:00,64.5,62.4,29.96,SW,230,0.0,0.0,93,0.00,,,0.00,Wunderground v.1.15,2013-08-23 08:00:00,
2013-08-23 04:06:00,64.3,62.2,29.96,SW,230,0.0,0.0,93,0.00,,,0.00,Wunderground v.1.15,2013-08-23 08:06:00,
2013-08-23 04:12:00,64.3,62.2,29.96,SW,230,0.0,0.0,93,0.00,,,0.00,Wunderground v.1.15,2013-08-23 08:12:00,
2013-08-23 04:18:00,64.2,62.1,29.95,SW,229,0.0,0.0,93,0.00,,,0.00,Wunderground v.1.15,2013-08-23 08:18:00,
2013-08-23 04:24:00,63.9,61.8,29.95,SW,229,0.0,0.0,93,0.00,,,0.00,Wunderground v.1.15,2013-08-23 08:24:00,
2013-08-23 04:30:00,64.0,61.9,29.94,SW,231,0.0,1.0,93,0.00,,,0.00,Wunderground v.1.15,2013-08-23 08:30:00,
2013-08-23 04:36:00,64.2,62.1,29.94,SW,231,0.0,1.0,93,0.00,,,0.00,Wunderground v.1.15,2013-08-23 08:36:00,
2013-08-23 04:42:00,64.3,62.5,29.95,SW,231,0.0,0.0,94,0.00,,,0.00,Wunderground v.1.15,2013-08-23 08:42:00,
2013-08-23 04:48:00,64.4,62.6,29.95,SW,231,0.0,2.0,94,0.00,,,0.00,Wunderground v.1.15,2013-08-23 08:48:00,
2013-08-23 04:54:00,64.3,62.5,29.95,SW,231,0.0,0.0,94,0.00,,,0.00,Wunderground v.1.15,2013-08-23 08:54:00,
2013-08-23 05:00:00,63.9,61.8,29.95,SW,231,0.0,0.0,93,0.00,,,0.00,Wunderground v.1.15,2013-08-23 09:00:00,
2013-08-23 05:06:00,63.6,61.8,29.96,SW,231,0.0,0.0,94,0.00,,,0.00,Wunderground v.1.15,2013-08-23 09:06:00,
2013-08-23 05:12:00,63.6,61.8,29.96,SW,231,0.0,0.0,94,0.00,,,0.00,Wunderground v.1.15,2013-08-23 09:12:00,
2013-08-23 05:18:00,63.7,61.9,29.96,SW,231,0.0,0.0,94,0.00,,,0.00,Wunderground v.1.15,2013-08-23 09:18:00,
2013-08-23 05:24:00,63.7,61.9,29.95,SW,231,0.0,0.0,94,0.00,,,0.00,Wunderground v.1.15,2013-08-23 09:24:00,
2013-08-23 05:30:00,63.8,62.0,29.96,SW,231,0.0,0.0,94,0.00,,,0.00,Wunderground v.1.15,2013-08-23 09:30:00,
2013-08-23 05:36:00,63.9,62.1,29.96,SW,231,0.0,2.0,94,0.00,,,0.00,Wunderground v.1.15,2013-08-23 09:36:00,
2013-08-23 05:42:00,63.7,61.9,29.96,SW,231,0.0,0.0,94,0.00,,,0.00,Wunderground v.1.15,2013-08-23 09:42:00,
2013-08-23 05:48:00,63.2,61.4,29.96,SW,231,0.0,0.0,94,0.00,,,0.00,Wunderground v.1.15,2013-08-23 09:48:00,
2013-08-23 05:54:00,63.2,61.4,29.96,SW,231,0.0,0.0,94,0.00,,,0.00,Wunderground v.1.15,2013-08-23 09:54:00,
2013-08-23 06:00:00,63.1,61.3,29.97,SW,231,0.0,0.0,94,0.00,,,0.00,Wunderground v.1.15,2013-08-23 10:00:00,
2013-08-23 06:06:00,63.1,61.3,29.97,SW,231,0.0,0.0,94,0.00,,,0.00,Wunderground v.1.15,2013-08-23 10:06:00,
2013-08-23 06:12:00,63.1,61.3,29.97,SW,231,0.0,0.0,94,0.00,,,0.00,Wunderground v.1.15,2013-08-23 10:12:00,
2013-08-23 06:18:00,63.2,61.4,29.97,SW,231,0.0,0.0,94,0.00,,,0.00,Wunderground v.1.15,2013-08-23 10:18:00,
2013-08-23 06:24:00,63.4,61.9,29.97,SW,231,0.0,0.0,95,0.00,,,0.00,Wunderground v.1.15,2013-08-23 10:24:00,
2013-08-23 06:30:00,63.5,62.0,29.98,SW,231,0.0,0.0,95,0.00,,,0.00,Wunderground v.1.15,2013-08-23 10:30:00,
2013-08-23 06:36:00,63.6,62.1,29.98,SW,231,0.0,0.0,95,0.00,,,0.00,Wunderground v.1.15,2013-08-23 10:36:00,
2013-08-23 06:42:00,63.7,62.2,29.98,SW,231,0.0,0.0,95,0.00,,,0.00,Wunderground v.1.15,2013-08-23 10:42:00,
2013-08-23 06:48:00,63.7,62.2,29.98,SW,231,0.0,0.0,95,0.00,,,0.00,Wunderground v.1.15,2013-08-23 10:48:00,
2013-08-23 06:54:00,63.8,62.3,29.99,SW,231,0.0,0.0,95,0.00,,,0.00,Wunderground v.1.15,2013-08-23 10:54:00,
2013-08-23 07:00:00,63.7,62.2,29.99,SW,231,0.0,0.0,95,0.00,,,0.00,Wunderground v.1.15,2013-08-23 11:00:00,
2013-08-23 07:06:00,63.8,62.3,29.99,SW,231,0.0,0.0,95,0.00,,,0.00,Wunderground v.1.15,2013-08-23 11:06:00,
2013-08-23 07:12:00,63.9,62.4,29.99,SW,231,0.0,0.0,95,0.00,,,0.00,Wunderground v.1.15,2013-08-23 11:12:00,
2013-08-23 07:18:00,64.0,62.5,29.99,SW,231,0.0,0.0,95,0.00,,,0.00,Wunderground v.1.15,2013-08-23 11:18:00,
2013-08-23 07:24:00,64.2,62.7,29.99,SW,231,0.0,0.0,95,0.00,,,0.00,Wunderground v.1.15,2013-08-23 11:24:00,
2013-08-23 07:30:00,64.3,62.8,29.99,SW,231,0.0,0.0,95,0.00,,,0.00,Wunderground v.1.15,2013-08-23 11:30:00,
2013-08-23 07:36:00,64.3,62.8,29.99,SW,231,0.0,0.0,95,0.00,,,0.00,Wunderground v.1.15,2013-08-23 11:36:00,
2013-08-23 07:42:00,64.4,62.9,30.00,SW,231,0.0,0.0,95,0.00,,,0.00,Wunderground v.1.15,2013-08-23 11:42:00,
2013-08-23 07:48:00,64.5,63.0,30.00,SW,231,0.0,0.0,95,0.00,,,0.00,Wunderground v.1.15,2013-08-23 11:48:00,
2013-08-23 07:54:00,64.7,63.2,30.00,SW,231,0.0,0.0,95,0.00,,,0.00,Wunderground v.1.15,2013-08-23 11:54:00,
2013-08-23 08:00:00,64.8,63.3,29.99,SW,231,0.0,0.0,95,0.00,,,0.00,Wunderground v.1.15,2013-08-23 12:00:00,
2013-08-23 08:06:00,65.0,63.5,30.00,WNW,283,1.0,2.0,95,0.00,,,0.00,Wunderground v.1.15,2013-08-23 12:06:00,
2013-08-23 08:12:00,65.0,63.5,30.00,WNW,284,1.0,1.0,95,0.00,,,0.00,Wunderground v.1.15,2013-08-23 12:12:00,
2013-08-23 08:18:00,65.1,63.6,30.00,WNW,284,0.0,1.0,95,0.00,,,0.00,Wunderground v.1.15,2013-08-23 12:18:00,
2013-08-23 08:24:00,65.3,64.1,30.00,WNW,284,0.0,0.0,96,0.00,,,0.00,Wunderground v.1.15,2013-08-23 12:24:00,
2013-08-23 08:30:00,65.4,64.2,30.00,WNW,284,0.0,0.0,96,0.00,,,0.00,Wunderground v.1.15,2013-08-23 12:30:00,
2013-08-23 08:36:00,65.4,64.2,30.00,WNW,284,0.0,0.0,96,0.00,,,0.00,Wunderground v.1.15,2013-08-23 12:36:00,
2013-08-23 08:42:00,65.5,64.3,30.00,WNW,284,0.0,0.0,96,0.00,,,0.00,Wunderground v.1.15,2013-08-23 12:42:00,
2013-08-23 08:48:00,65.6,64.4,30.00,WNW,284,0.0,0.0,96,0.00,,,0.00,Wunderground v.1.15,2013-08-23 12:48:00,
2013-08-23 08:54:00,65.8,64.6,30.00,WNW,284,0.0,0.0,96,0.00,,,0.00,Wunderground v.1.15,2013-08-23 12:54:00,
2013-08-23 09:00:00,65.9,64.7,30.00,WNW,284,0.0,0.0,96,0.00,,,0.00,Wunderground v.1.15,2013-08-23 13:00:00,
2013-08-23 09:06:00,65.8,64.6,30.00,WNW,284,0.0,0.0,96,0.00,,,0.00,Wunderground v.1.15,2013-08-23 13:06:00,
2013-08-23 09:12:00,65.9,64.7,30.00,WNW,284,1.0,2.0,96,0.00,,,0.00,Wunderground v.1.15,2013-08-23 13:12:00,
2013-08-23 09:18:00,66.1,64.9,30.00,WNW,302,2.0,3.0,96,0.00,,,0.00,Wunderground v.1.15,2013-08-23 13:18:00,
2013-08-23 09:24:00,66.0,64.8,30.00,NW,304,2.0,3.0,96,0.00,,,0.00,Wunderground v.1.15,2013-08-23 13:24:00,
2013-08-23 09:30:00,66.0,64.8,30.01,NW,304,1.0,1.0,96,0.00,,,0.00,Wunderground v.1.15,2013-08-23 13:30:00,
2013-08-23 09:36:00,66.1,64.9,30.01,NW,304,0.0,1.0,96,0.00,,,0.00,Wunderground v.1.15,2013-08-23 13:36:00,
2013-08-23 09:42:00,66.1,64.9,30.01,NW,304,0.0,1.0,96,0.00,,,0.00,Wunderground v.1.15,2013-08-23 13:42:00,
2013-08-23 09:48:00,66.1,64.9,30.01,NW,304,1.0,2.0,96,0.00,,,0.00,Wunderground v.1.15,2013-08-23 13:48:00,
2013-08-23 09:54:00,66.3,64.8,30.02,NNE,17,1.0,3.0,95,0.00,,,0.00,Wunderground v.1.15,2013-08-23 13:54:00,
2013-08-23 10:00:00,66.3,64.8,30.02,NNE,17,1.0,1.0,95,0.00,,,0.00,Wunderground v.1.15,2013-08-23 14:00:00,
2013-08-23 10:06:00,66.3,64.8,30.02,NNE,17,0.0,1.0,95,0.00,,,0.00,Wunderground v.1.15,2013-08-23 14:06:00,
2013-08-23 10:12:00,66.0,64.5,30.03,NE,53,1.0,4.0,95,0.00,,,0.00,Wunderground v.1.15,2013-08-23 14:12:00,
2013-08-23 10:18:00,65.6,63.8,30.03,NE,53,2.0,4.0,94,0.00,,,0.00,Wunderground v.1.15,2013-08-23 14:18:00,
2013-08-23 10:24:00,65.4,63.6,30.03,ENE,59,1.0,3.0,94,0.00,,,0.00,Wunderground v.1.15,2013-08-23 14:24:00,
2013-08-23 10:30:00,65.2,63.1,30.04,ENE,59,1.0,2.0,93,0.00,,,0.00,Wunderground v.1.15,2013-08-23 14:30:00,
2013-08-23 10:36:00,65.1,62.7,30.04,ENE,59,0.0,2.0,92,0.00,,,0.00,Wunderground v.1.15,2013-08-23 14:36:00,
2013-08-23 10:42:00,65.2,62.8,30.04,ENE,59,1.0,1.0,92,0.00,,,0.00,Wunderground v.1.15,2013-08-23 14:42:00,
2013-08-23 10:48:00,65.8,63.4,30.04,ENE,59,0.0,2.0,92,0.00,,,0.00,Wunderground v.1.15,2013-08-23 14:48:00,
2013-08-23 10:54:00,66.3,63.3,30.05,ENE,72,1.0,1.0,90,0.00,,,0.00,Wunderground v.1.15,2013-08-23 14:54:00,
2013-08-23 11:00:00,66.5,63.5,30.05,ENE,72,1.0,1.0,90,0.00,,,0.00,Wunderground v.1.15,2013-08-23 15:00:00,
2013-08-23 11:06:00,66.4,63.4,30.05,ENE,72,1.0,2.0,90,0.00,,,0.00,Wunderground v.1.15,2013-08-23 15:06:00,
2013-08-23 11:12:00,66.3,63.3,30.05,ENE,72,0.0,0.0,90,0.00,,,0.00,Wunderground v.1.15,2013-08-23 15:12:00,
2013-08-23 11:18:00,66.4,63.4,30.05,ENE,72,0.0,0.0,90,0.00,,,0.00,Wunderground v.1.15,2013-08-23 15:18:00,
2013-08-23 11:24:00,66.5,63.5,30.05,ENE,72,0.0,0.0,90,0.00,,,0.00,Wunderground v.1.15,2013-08-23 15:24:00,
2013-08-23 11:30:00,66.8,63.5,30.05,ENE,72,0.0,0.0,89,0.00,,,0.00,Wunderground v.1.15,2013-08-23 15:30:00,
2013-08-23 11:36:00,67.0,63.3,30.05,ENE,72,0.0,0.0,88,0.00,,,0.00,Wunderground v.1.15,2013-08-23 15:36:00,
2013-08-23 11:42:00,67.0,63.6,30.06,ENE,72,1.0,2.0,89,0.00,,,0.00,Wunderground v.1.15,2013-08-23 15:42:00,
2013-08-23 11:48:00,67.2,63.5,30.06,ENE,72,1.0,2.0,88,0.00,,,0.00,Wunderground v.1.15,2013-08-23 15:48:00,
2013-08-23 11:54:00,67.5,63.5,30.05,ENE,72,1.0,3.0,87,0.00,,,0.00,Wunderground v.1.15,2013-08-23 15:54:00,
2013-08-23 12:00:00,67.8,63.8,30.05,ENE,72,1.0,1.0,87,0.00,,,0.00,Wunderground v.1.15,2013-08-23 16:00:00,
2013-08-23 12:06:00,68.6,64.2,30.05,ENE,72,1.0,1.0,86,0.00,,,0.00,Wunderground v.1.15,2013-08-23 16:06:00,
2013-08-23 12:12:00,68.9,64.2,30.05,ENE,71,1.0,2.0,85,0.00,,,0.00,Wunderground v.1.15,2013-08-23 16:12:00,
2013-08-23 12:18:00,68.8,64.4,30.05,NE,53,2.0,3.0,86,0.00,,,0.00,Wunderground v.1.15,2013-08-23 16:18:00,
2013-08-23 12:24:00,69.5,64.8,30.05,NNE,28,2.0,5.0,85,0.00,,,0.00,Wunderground v.1.15,2013-08-23 16:24:00,
2013-08-23 12:30:00,70.1,65.4,30.05,NNE,17,4.0,7.0,85,0.00,,,0.00,Wunderground v.1.15,2013-08-23 16:30:00,
2013-08-23 12:36:00,70.9,65.1,30.05,NNE,24,7.0,10.0,82,0.00,,,0.00,Wunderground v.1.15,2013-08-23 16:36:00,
2013-08-23 12:42:00,71.1,65.3,30.05,North,355,7.0,8.0,82,0.00,,,0.00,Wunderground v.1.15,2013-08-23 16:42:00,
2013-08-23 12:48:00,71.3,65.2,30.05,NNE,15,6.0,8.0,81,0.00,,,0.00,Wunderground v.1.15,2013-08-23 16:48:00,
2013-08-23 12:54:00,71.8,66.0,30.04,NNW,348,5.0,8.0,82,0.00,,,0.00,Wunderground v.1.15,2013-08-23 16:54:00,
2013-08-23 13:00:00,72.0,65.8,30.04,NNE,13,5.0,7.0,81,0.00,,,0.00,Wunderground v.1.15,2013-08-23 17:00:00,
2013-08-23 13:06:00,71.8,65.7,30.04,North,5,6.0,9.0,81,0.00,,,0.00,Wunderground v.1.15,2013-08-23 17:06:00,
2013-08-23 13:12:00,71.9,66.1,30.04,NNW,342,6.0,6.0,82,0.00,,,0.00,Wunderground v.1.15,2013-08-23 17:12:00,
2013-08-23 13:18:00,72.2,65.3,30.05,North,355,5.0,6.0,79,0.00,,,0.00,Wunderground v.1.15,2013-08-23 17:18:00,
2013-08-23 13:24:00,72.3,66.1,30.04,NNW,335,4.0,5.0,81,0.00,,,0.00,Wunderground v.1.15,2013-08-23 17:24:00,
2013-08-23 13:30:00,72.0,65.1,30.04,NNE,16,3.0,7.0,79,0.00,,,0.00,Wunderground v.1.15,2013-08-23 17:30:00,
2013-08-23 13:36:00,72.2,65.7,30.04,ENE,63,4.0,7.0,80,0.00,,,0.00,Wunderground v.1.15,2013-08-23 17:36:00,
2013-08-23 13:42:00,72.9,64.9,30.04,ENE,61,3.0,4.0,76,0.00,,,0.00,Wunderground v.1.15,2013-08-23 17:42:00,
2013-08-23 13:48:00,74.5,65.7,30.04,SE,146,1.0,4.0,74,0.00,,,0.00,Wunderground v.1.15,2013-08-23 17:48:00,
2013-08-23 13:54:00,75.0,66.9,30.04,NNE,30,2.0,4.0,76,0.00,,,0.00,Wunderground v.1.15,2013-08-23 17:54:00,
2013-08-23 14:00:00,74.8,65.2,30.04,ENE,59,3.0,3.0,72,0.00,,,0.00,Wunderground v.1.15,2013-08-23 18:00:00,
2013-08-23 14:06:00,75.4,62.8,30.04,NNE,12,3.0,8.0,65,0.00,,,0.00,Wunderground v.1.15,2013-08-23 18:06:00,
2013-08-23 14:12:00,75.0,64.1,30.04,East,96,4.0,10.0,69,0.00,,,0.00,Wunderground v.1.15,2013-08-23 18:12:00,
2013-08-23 14:18:00,75.2,62.6,30.04,North,360,4.0,10.0,65,0.00,,,0.00,Wunderground v.1.15,2013-08-23 18:18:00,
2013-08-23 14:24:00,75.3,63.6,30.04,NE,50,5.0,6.0,67,0.00,,,0.00,Wunderground v.1.15,2013-08-23 18:24:00,
2013-08-23 14:30:00,75.6,62.6,30.04,NE,49,5.0,6.0,64,0.00,,,0.00,Wunderground v.1.15,2013-08-23 18:30:00,
2013-08-23 14:36:00,76.1,63.0,30.04,ESE,113,5.0,8.0,64,0.00,,,0.00,Wunderground v.1.15,2013-08-23 18:36:00,
2013-08-23 14:42:00,76.4,62.9,30.04,NE,44,3.0,5.0,63,0.00,,,0.00,Wunderground v.1.15,2013-08-23 18:42:00,
2013-08-23 14:48:00,76.2,61.3,30.04,NNE,28,3.0,6.0,60,0.00,,,0.00,Wunderground v.1.15,2013-08-23 18:48:00,
2013-08-23 14:54:00,76.6,62.1,30.04,SE,126,2.0,4.0,61,0.00,,,0.00,Wunderground v.1.15,2013-08-23 18:54:00,
2013-08-23 15:00:00,76.4,60.0,30.03,NE,45,2.0,2.0,57,0.00,,,0.00,Wunderground v.1.15,2013-08-23 19:00:00,
2013-08-23 15:06:00,76.2,61.3,30.03,NNW,342,3.0,4.0,60,0.00,,,0.00,Wunderground v.1.15,2013-08-23 19:06:00,
2013-08-23 15:12:00,76.1,62.6,30.03,ESE,116,2.0,4.0,63,0.00,,,0.00,Wunderground v.1.15,2013-08-23 19:12:00,
2013-08-23 15:18:00,75.5,61.1,30.03,East,91,2.0,4.0,61,0.00,,,0.00,Wunderground v.1.15,2013-08-23 19:18:00,
2013-08-23 15:24:00,76.1,62.1,30.03,ENE,58,2.0,3.0,62,0.00,,,0.00,Wunderground v.1.15,2013-08-23 19:24:00,
2013-08-23 15:30:00,77.0,63.0,30.03,ENE,58,1.0,2.0,62,0.00,,,0.00,Wunderground v.1.15,2013-08-23 19:30:00,
2013-08-23 15:36:00,77.2,61.8,30.03,ENE,69,2.0,4.0,59,0.00,,,0.00,Wunderground v.1.15,2013-08-23 19:36:00,
2013-08-23 15:42:00,76.5,59.6,30.03,NNE,30,4.0,6.0,56,0.00,,,0.00,Wunderground v.1.15,2013-08-23 19:42:00,
2013-08-23 15:48:00,75.6,60.3,30.03,NNE,13,4.0,6.0,59,0.00,,,0.00,Wunderground v.1.15,2013-08-23 19:48:00,
2013-08-23 15:54:00,75.9,60.5,30.03,NNE,32,4.0,7.0,59,0.00,,,0.00,Wunderground v.1.15,2013-08-23 19:54:00,
2013-08-23 16:00:00,76.9,57.4,30.03,NNE,22,3.0,5.0,51,0.00,,,0.00,Wunderground v.1.15,2013-08-23 20:00:00,
2013-08-23 16:06:00,76.9,58.5,30.03,ENE,63,3.0,5.0,53,0.00,,,0.00,Wunderground v.1.15,2013-08-23 20:06:00,
2013-08-23 16:12:00,76.9,59.0,30.03,ENE,64,3.0,4.0,54,0.00,,,0.00,Wunderground v.1.15,2013-08-23 20:12:00,
2013-08-23 16:18:00,76.3,58.4,30.03,ENE,69,3.0,4.0,54,0.00,,,0.00,Wunderground v.1.15,2013-08-23 20:18:00,
2013-08-23 16:24:00,76.6,60.7,30.03,ENE,58,3.0,7.0,58,0.00,,,0.00,Wunderground v.1.15,2013-08-23 20:24:00,
2013-08-23 16:30:00,77.6,59.6,30.03,NE,34,3.0,3.0,54,0.00,,,0.00,Wunderground v.1.15,2013-08-23 20:30:00,
2013-08-23 16:36:00,77.3,60.4,30.02,NE,44,4.0,6.0,56,0.00,,,0.00,Wunderground v.1.15,2013-08-23 20:36:00,
2013-08-23 16:42:00,77.4,59.5,30.02,NE,34,4.0,4.0,54,0.00,,,0.00,Wunderground v.1.15,2013-08-23 20:42:00,
2013-08-23 16:48:00,77.7,59.7,30.03,ENE,58,3.0,4.0,54,0.00,,,0.00,Wunderground v.1.15,2013-08-23 20:48:00,
2013-08-23 16:54:00,77.5,57.9,30.02,ENE,64,3.0,5.0,51,0.00,,,0.00,Wunderground v.1.15,2013-08-23 20:54:00,
2013-08-23 17:00:00,77.4,57.9,30.03,ENE,70,3.0,5.0,51,0.00,,,0.00,Wunderground v.1.15,2013-08-23 21:00:00,
2013-08-23 17:06:00,77.7,58.7,30.03,ENE,70,2.0,5.0,52,0.00,,,0.00,Wunderground v.1.15,2013-08-23 21:06:00,
2013-08-23 17:12:00,77.6,58.6,30.03,NE,38,1.0,3.0,52,0.00,,,0.00,Wunderground v.1.15,2013-08-23 21:12:00,
2013-08-23 17:18:00,77.6,58.0,30.02,NE,43,2.0,3.0,51,0.00,,,0.00,Wunderground v.1.15,2013-08-23 21:18:00,
2013-08-23 17:24:00,77.6,60.7,30.02,NE,42,1.0,3.0,56,0.00,,,0.00,Wunderground v.1.15,2013-08-23 21:24:00,
2013-08-23 17:30:00,78.0,58.9,30.02,ESE,121,1.0,1.0,52,0.00,,,0.00,Wunderground v.1.15,2013-08-23 21:30:00,
2013-08-23 17:36:00,78.1,59.6,30.02,East,98,0.0,4.0,53,0.00,,,0.00,Wunderground v.1.15,2013-08-23 21:36:00,
2013-08-23 17:42:00,77.8,59.8,30.02,ESE,113,1.0,4.0,54,0.00,,,0.00,Wunderground v.1.15,2013-08-23 21:42:00,
2013-08-23 17:48:00,77.9,59.9,30.02,SE,126,2.0,4.0,54,0.00,,,0.00,Wunderground v.1.15,2013-08-23 21:48:00,
2013-08-23 17:54:00,77.1,60.2,30.02,SE,126,1.0,2.0,56,0.00,,,0.00,Wunderground v.1.15,2013-08-23 21:54:00,
2013-08-23 18:00:00,76.2,59.9,30.02,SE,127,1.0,1.0,57,0.00,,,0.00,Wunderground v.1.15,2013-08-23 22:00:00,
2013-08-23 18:06:00,76.1,61.7,30.02,SE,128,1.0,1.0,61,0.00,,,0.00,Wunderground v.1.15,2013-08-23 22:06:00,
2013-08-23 18:12:00,75.5,61.6,30.02,SW,232,2.0,3.0,62,0.00,,,0.00,Wunderground v.1.15,2013-08-23 22:12:00,
2013-08-23 18:18:00,73.7,63.3,30.02,WSW,240,3.0,3.0,70,0.00,,,0.00,Wunderground v.1.15,2013-08-23 22:18:00,
2013-08-23 18:24:00,72.4,63.6,30.03,SW,234,2.0,3.0,74,0.00,,,0.00,Wunderground v.1.15,2013-08-23 22:24:00,
2013-08-23 18:30:00,71.7,63.7,30.03,SW,235,0.0,0.0,76,0.00,,,0.00,Wunderground v.1.15,2013-08-23 22:30:00,
2013-08-23 18:36:00,71.5,63.9,30.02,SW,234,0.0,0.0,77,0.00,,,0.00,Wunderground v.1.15,2013-08-23 22:36:00,
2013-08-23 18:42:00,71.3,63.7,30.02,SW,234,1.0,1.0,77,0.00,,,0.00,Wunderground v.1.15,2013-08-23 22:42:00,
2013-08-23 18:48:00,71.1,63.5,30.03,SW,234,1.0,1.0,77,0.00,,,0.00,Wunderground v.1.15,2013-08-23 22:48:00,
2013-08-23 18:54:00,70.8,63.6,30.03,SW,234,0.0,0.0,78,0.00,,,0.00,Wunderground v.1.15,2013-08-23 22:54:00,
2013-08-23 19:00:00,70.6,63.4,30.03,SW,234,0.0,1.0,78,0.00,,,0.00,Wunderground v.1.15,2013-08-23 23:00:00,
2013-08-23 19:06:00,70.4,63.6,30.03,SW,234,0.0,1.0,79,0.00,,,0.00,Wunderground v.1.15,2013-08-23 23:06:00,
2013-08-23 19:12:00,70.2,63.4,30.03,SW,234,0.0,0.0,79,0.00,,,0.00,Wunderground v.1.15,2013-08-23 23:12:00,
2013-08-23 19:18:00,69.9,63.8,30.03,SW,234,0.0,0.0,81,0.00,,,0.00,Wunderground v.1.15,2013-08-23 23:18:00,
2013-08-23 19:24:00,69.5,63.4,30.03,SW,234,0.0,0.0,81,0.00,,,0.00,Wunderground v.1.15,2013-08-23 23:24:00,
2013-08-23 19:30:00,69.0,63.3,30.03,SW,234,0.0,0.0,82,0.00,,,0.00,Wunderground v.1.15,2013-08-23 23:30:00,
2013-08-23 19:36:00,68.4,62.7,30.04,SW,234,0.0,0.0,82,0.00,,,0.00,Wunderground v.1.15,2013-08-23 23:36:00,
2013-08-23 19:42:00,67.8,62.4,30.04,SW,234,0.0,0.0,83,0.00,,,0.00,Wunderground v.1.15,2013-08-23 23:42:00,
2013-08-23 19:48:00,67.3,62.3,30.04,SW,234,0.0,0.0,84,0.00,,,0.00,Wunderground v.1.15,2013-08-23 23:48:00,
2013-08-23 19:54:00,66.8,62.1,30.04,SW,234,0.0,0.0,85,0.00,,,0.00,Wunderground v.1.15,2013-08-23 23:54:00,
2013-08-23 20:00:00,66.3,61.7,30.04,SW,234,0.0,0.0,85,0.00,,,0.00,Wunderground v.1.15,2013-08-24 00:00:00,
2013-08-23 20:06:00,66.0,61.4,30.04,SW,234,0.0,0.0,85,0.00,,,0.00,Wunderground v.1.15,2013-08-24 00:06:00,
2013-08-23 20:12:00,65.6,61.0,30.05,SW,234,0.0,0.0,85,0.00,,,0.00,Wunderground v.1.15,2013-08-24 00:12:00,
2013-08-23 20:18:00,65.3,60.7,30.05,SW,234,0.0,0.0,85,0.00,,,0.00,Wunderground v.1.15,2013-08-24 00:18:00,
2013-08-23 20:24:00,64.4,60.4,30.05,SW,234,0.0,0.0,87,0.00,,,0.00,Wunderground v.1.15,2013-08-24 00:24:00,
2013-08-23 20:30:00,64.0,60.1,30.05,SW,234,0.0,0.0,87,0.00,,,0.00,Wunderground v.1.15,2013-08-24 00:30:00,
2013-08-23 20:36:00,63.7,59.8,30.06,SW,234,0.0,0.0,87,0.00,,,0.00,Wunderground v.1.15,2013-08-24 00:36:00,
2013-08-23 20:42:00,63.5,59.6,30.06,SW,234,0.0,0.0,87,0.00,,,0.00,Wunderground v.1.15,2013-08-24 00:42:00,
2013-08-23 20:48:00,63.2,59.3,30.06,SW,234,0.0,0.0,87,0.00,,,0.00,Wunderground v.1.15,2013-08-24 00:48:00,
2013-08-23 20:54:00,62.9,59.0,30.07,SW,234,0.0,0.0,87,0.00,,,0.00,Wunderground v.1.15,2013-08-24 00:54:00,
2013-08-23 21:00:00,62.3,58.7,30.07,SW,234,0.0,0.0,88,0.00,,,0.00,Wunderground v.1.15,2013-08-24 01:00:00,
2013-08-23 21:06:00,61.8,58.5,30.07,SW,234,0.0,0.0,89,0.00,,,0.00,Wunderground v.1.15,2013-08-24 01:06:00,
2013-08-23 21:12:00,61.4,58.1,30.07,SW,234,0.0,2.0,89,0.00,,,0.00,Wunderground v.1.15,2013-08-24 01:12:00,
2013-08-23 21:18:00,60.9,57.6,30.08,SW,234,1.0,2.0,89,0.00,,,0.00,Wunderground v.1.15,2013-08-24 01:18:00,
2013-08-23 21:24:00,60.5,57.2,30.08,SW,234,1.0,1.0,89,0.00,,,0.00,Wunderground v.1.15,2013-08-24 01:24:00,
2013-08-23 21:30:00,60.2,57.3,30.08,SW,234,0.0,0.0,90,0.00,,,0.00,Wunderground v.1.15,2013-08-24 01:30:00,
2013-08-23 21:36:00,60.1,57.2,30.09,SW,234,0.0,0.0,90,0.00,,,0.00,Wunderground v.1.15,2013-08-24 01:36:00,
2013-08-23 21:42:00,59.9,56.6,30.09,SW,234,0.0,0.0,89,0.00,,,0.00,Wunderground v.1.15,2013-08-24 01:42:00,
2013-08-23 21:48:00,59.6,56.7,30.09,SW,234,0.0,0.0,90,0.00,,,0.00,Wunderground v.1.15,2013-08-24 01:48:00,
2013-08-23 21:54:00,59.4,56.5,30.09,SW,234,0.0,0.0,90,0.00,,,0.00,Wunderground v.1.15,2013-08-24 01:54:00,
2013-08-23 22:00:00,59.2,56.3,30.10,SW,234,0.0,1.0,90,0.00,,,0.00,Wunderground v.1.15,2013-08-24 02:00:00,
2013-08-23 22:06:00,59.0,56.1,30.10,SW,234,1.0,1.0,90,0.00,,,0.00,Wunderground v.1.15,2013-08-24 02:06:00,
2013-08-23 22:12:00,59.0,56.4,30.10,SW,234,1.0,1.0,91,0.00,,,0.00,Wunderground v.1.15,2013-08-24 02:12:00,
2013-08-23 22:18:00,58.9,56.0,30.10,SW,234,0.0,1.0,90,0.00,,,0.00,Wunderground v.1.15,2013-08-24 02:18:00,
2013-08-23 22:24:00,58.8,56.2,30.10,SW,234,0.0,0.0,91,0.00,,,0.00,Wunderground v.1.15,2013-08-24 02:24:00,
2013-08-23 22:30:00,58.6,56.0,30.10,SW,234,0.0,0.0,91,0.00,,,0.00,Wunderground v.1.15,2013-08-24 02:30:00,
2013-08-23 22:36:00,58.4,55.8,30.10,SW,234,0.0,0.0,91,0.00,,,0.00,Wunderground v.1.15,2013-08-24 02:36:00,
2013-08-23 22:42:00,58.3,55.7,30.10,SW,234,0.0,0.0,91,0.00,,,0.00,Wunderground v.1.15,2013-08-24 02:42:00,
2013-08-23 22:48:00,58.0,55.4,30.10,SW,234,0.0,0.0,91,0.00,,,0.00,Wunderground v.1.15,2013-08-24 02:48:00,
2013-08-23 22:54:00,57.8,55.2,30.11,SW,234,0.0,0.0,91,0.00,,,0.00,Wunderground v.1.15,2013-08-24 02:54:00,
2013-08-23 23:00:00,57.7,55.1,30.11,SW,234,0.0,0.0,91,0.00,,,0.00,Wunderground v.1.15,2013-08-24 03:00:00,
2013-08-23 23:06:00,57.5,54.9,30.11,SW,234,0.0,0.0,91,0.00,,,0.00,Wunderground v.1.15,2013-08-24 03:06:00,
2013-08-23 23:12:00,57.4,55.1,30.11,SW,234,0.0,0.0,92,0.00,,,0.00,Wunderground v.1.15,2013-08-24 03:12:00,
2013-08-23 23:18:00,56.8,54.2,30.12,WSW,248,0.0,3.0,91,0.00,,,0.00,Wunderground v.1.15,2013-08-24 03:18:00,
2013-08-23 23:24:00,56.2,53.6,30.13,ENE,76,2.0,4.0,91,0.00,,,0.00,Wunderground v.1.15,2013-08-24 03:24:00,
2013-08-23 23:30:00,57.2,55.2,30.13,ENE,61,4.0,4.0,93,0.00,,,0.00,Wunderground v.1.15,2013-08-24 03:30:00,
2013-08-23 23:36:00,57.8,56.1,30.13,NNW,340,3.0,4.0,94,0.00,,,0.00,Wunderground v.1.15,2013-08-24 03:36:00,
2013-08-23 23:42:00,58.1,56.4,30.13,NW,322,2.0,3.0,94,0.00,,,0.00,Wunderground v.1.15,2013-08-24 03:42:00,
2013-08-23 23:48:00,58.2,56.5,30.13,NW,322,1.0,3.0,94,0.00,,,0.00,Wunderground v.1.15,2013-08-24 03:48:00,
2013-08-23 23:54:00,57.5,55.5,30.13,NW,322,0.0,2.0,93,0.00,,,0.00,Wunderground v.1.15,2013-08-24 03:54:00,